Time;durP1;ratioP1;P1;durP2;ratioP2;P2;SDS_P1;SDS_P2;PMS_P1;PMS_P2;Temp;Humidity;BMP_temperature;BMP_pressure;BME280_temperature;BME280_humidity;BME280_pressure;Samples;Min_cycle;Max_cycle;Signal;HPM_P1;HPM_P2
2022/09/29 00:01:43;;;;;;;;;;;8.50;99.90;;;;;;6155686;23;19912;-84
2022/09/29 00:04:11;;;;;;;;;;;8.50;99.90;;;;;;6155536;23;19959;-85
2022/09/29 00:06:38;;;;;;;;;;;8.40;99.90;;;;;;6155129;23;20276;-86
2022/09/29 00:09:06;;;;;;;;;;;8.40;99.90;;;;;;6155297;23;19916;-86
2022/09/29 00:11:33;;;;;;;;;;;8.40;99.90;;;;;;6155391;23;19960;-84
2022/09/29 00:14:00;;;;;;;;;;;8.30;99.90;;;;;;6155098;23;20315;-87
2022/09/29 00:16:28;;;;;;;;;;;8.20;99.90;;;;;;6155605;23;19995;-83
2022/09/29 00:18:54;;;;;;;;;;;8.20;99.90;;;;;;6155607;23;19912;-86
2022/09/29 00:21:23;;;;;;;;;;;8.10;99.90;;;;;;6155332;23;19912;-83
2022/09/29 00:23:50;;;;;;;;;;;8.10;99.90;;;;;;6155362;23;20279;-86
2022/09/29 00:26:18;;;;;;;;;;;8.10;99.90;;;;;;6154893;23;20316;-85
2022/09/29 00:28:47;;;;;;;;;;;8.00;99.90;;;;;;6155167;23;19948;-84
2022/09/29 00:31:13;;;;;;;;;;;7.90;99.90;;;;;;6154880;23;19912;-84
2022/09/29 00:33:40;;;;;;;;;;;7.90;99.90;;;;;;6155356;23;19913;-85
2022/09/29 00:36:09;;;;;;;;;;;7.80;99.90;;;;;;6154862;23;19968;-84
2022/09/29 00:38:37;;;;;;;;;;;7.80;99.90;;;;;;6155276;23;19963;-86
2022/09/29 00:41:05;;;;;;;;;;;7.70;99.90;;;;;;6154930;23;19912;-85
2022/09/29 00:43:48;;;;;;;;;;;7.70;99.90;;;;;;6155171;23;19912;-85
2022/09/29 00:46:16;;;;;;;;;;;7.60;99.90;;;;;;6154332;23;19967;-84
2022/09/29 00:48:44;;;;;;;;;;;7.60;99.90;;;;;;6154656;23;20380;-84
2022/09/29 00:51:10;;;;;;;;;;;7.60;99.90;;;;;;6154598;23;19946;-85
2022/09/29 00:53:39;;;;;;;;;;;7.60;1.00;;;;;;6154620;23;20364;-85
2022/09/29 00:56:08;;;;;;;;;;;7.60;99.90;;;;;;6154583;23;19919;-85
2022/09/29 00:58:38;;;;;;;;;;;7.60;1.00;;;;;;6155033;23;19959;-84
2022/09/29 01:01:05;;;;;;;;;;;7.70;1.00;;;;;;6154816;23;19916;-87
2022/09/29 01:03:33;;;;;;;;;;;7.60;1.00;;;;;;6154916;23;19968;-85
2022/09/29 01:06:01;;;;;;;;;;;7.70;1.00;;;;;;6155094;23;19912;-85
2022/09/29 01:08:30;;;;;;;;;;;7.70;1.00;;;;;;6155002;23;19991;-84
2022/09/29 01:11:00;;;;;;;;;;;7.70;1.00;;;;;;6155094;23;19963;-85
2022/09/29 01:13:27;;;;;;;;;;;7.70;1.00;;;;;;6157207;23;19971;-86
2022/09/29 01:15:54;;;;;;;;;;;7.70;99.90;;;;;;6157083;23;19912;-85
2022/09/29 01:18:21;;;;;;;;;;;7.70;1.00;;;;;;6156599;23;19959;-84
2022/09/29 01:20:51;;;;;;;;;;;7.70;1.00;;;;;;6156570;23;20363;-85
2022/09/29 01:23:36;;;;;;;;;;;7.70;1.00;;;;;;6156994;23;19968;-85
2022/09/29 01:26:14;;;;;;;;;;;7.70;1.00;;;;;;6156569;23;19913;-85
2022/09/29 01:28:47;;;;;;;;;;;7.70;1.00;;;;;;6156262;23;20316;-84
2022/09/29 01:31:21;;;;;;;;;;;7.70;1.00;;;;;;6156973;23;19916;-84
2022/09/29 01:33:54;;;;;;;;;;;7.60;1.00;;;;;;6156572;23;20228;-85
2022/09/29 01:36:25;;;;;;;;;;;7.60;1.00;;;;;;6156166;23;19917;-85
2022/09/29 01:38:55;;;;;;;;;;;7.60;1.00;;;;;;6156817;23;19917;-85
2022/09/29 01:41:25;;;;;;;;;;;7.50;1.00;;;;;;6156719;23;19967;-85
2022/09/29 01:43:56;;;;;;;;;;;7.50;1.00;;;;;;6156595;23;19976;-84
2022/09/29 01:46:25;;;;;;;;;;;7.40;99.90;;;;;;6156259;23;19913;-85
2022/09/29 01:48:54;;;;;;;;;;;7.40;99.90;;;;;;6156747;23;19968;-85
2022/09/29 01:51:23;;;;;;;;;;;7.40;1.00;;;;;;6156753;23;20335;-85
2022/09/29 01:53:52;;;;;;;;;;;7.40;1.00;;;;;;6156652;23;19916;-84
2022/09/29 01:56:21;;;;;;;;;;;7.40;1.00;;;;;;6156764;23;19912;-85
2022/09/29 01:58:52;;;;;;;;;;;7.40;1.00;;;;;;6156709;23;19916;-84
2022/09/29 02:01:21;;;;;;;;;;;7.40;1.00;;;;;;6156398;23;19913;-85
2022/09/29 02:03:51;;;;;;;;;;;7.40;1.00;;;;;;6156305;23;19919;-85
2022/09/29 02:06:21;;;;;;;;;;;7.40;1.00;;;;;;6156417;23;19963;-85
2022/09/29 02:08:50;;;;;;;;;;;7.40;1.00;;;;;;6156207;23;20387;-85
2022/09/29 02:11:17;;;;;;;;;;;7.40;1.00;;;;;;6156404;23;19976;-85
2022/09/29 02:13:46;;;;;;;;;;;7.40;1.00;;;;;;6156439;23;19916;-85
2022/09/29 02:16:14;;;;;;;;;;;7.40;99.90;;;;;;6156070;23;19912;-84
2022/09/29 02:18:43;;;;;;;;;;;7.40;1.00;;;;;;6156426;23;19959;-85
2022/09/29 02:21:11;;;;;;;;;;;7.40;1.00;;;;;;6156049;23;19912;-84
2022/09/29 02:23:37;;;;;;;;;;;7.40;1.00;;;;;;6155399;23;20319;-85
2022/09/29 02:26:04;;;;;;;;;;;7.40;1.00;;;;;;6156380;23;19916;-85
2022/09/29 02:28:31;;;;;;;;;;;7.40;1.00;;;;;;6156378;23;19916;-84
2022/09/29 02:30:58;;;;;;;;;;;7.40;1.00;;;;;;6155890;23;19917;-85
2022/09/29 02:33:25;;;;;;;;;;;7.40;1.00;;;;;;6155794;23;19959;-85
2022/09/29 02:35:59;;;;;;;;;;;7.30;1.00;;;;;;6156305;23;20289;-85
2022/09/29 02:38:30;;;;;;;;;;;7.30;1.00;;;;;;6156306;23;19912;-85
2022/09/29 02:41:00;;;;;;;;;;;7.30;1.00;;;;;;6156094;23;19916;-84
2022/09/29 02:43:35;;;;;;;;;;;7.30;1.00;;;;;;6155919;23;19912;-85
2022/09/29 02:46:06;;;;;;;;;;;7.30;1.00;;;;;;6156501;23;19913;-84
2022/09/29 02:48:44;;;;;;;;;;;7.30;1.00;;;;;;6156370;23;19975;-84
2022/09/29 02:51:16;;;;;;;;;;;7.30;1.00;;;;;;6156216;23;19959;-84
2022/09/29 02:53:52;;;;;;;;;;;7.30;1.00;;;;;;6131224;23;20291;-84
2022/09/29 02:56:24;;;;;;;;;;;7.30;1.00;;;;;;6154980;23;19913;-85
2022/09/29 02:58:54;;;;;;;;;;;7.30;1.00;;;;;;6155704;23;20268;-84
2022/09/29 03:01:20;;;;;;;;;;;7.30;1.00;;;;;;6156002;23;19912;-84
2022/09/29 03:03:47;;;;;;;;;;;7.30;1.00;;;;;;6155880;23;19960;-85
2022/09/29 03:06:14;;;;;;;;;;;7.30;1.00;;;;;;6155892;23;19968;-85
2022/09/29 03:08:41;;;;;;;;;;;7.30;1.00;;;;;;6155455;23;19920;-85
2022/09/29 03:11:09;;;;;;;;;;;7.30;1.00;;;;;;6154832;23;19916;-84
2022/09/29 03:13:36;;;;;;;;;;;7.30;1.00;;;;;;6155583;23;19912;-85
2022/09/29 03:16:03;;;;;;;;;;;7.30;1.00;;;;;;6155716;23;19955;-85
2022/09/29 03:18:29;;;;;;;;;;;7.30;1.00;;;;;;6155354;23;19955;-83
2022/09/29 03:20:56;;;;;;;;;;;7.30;1.00;;;;;;6154129;23;20320;-86
2022/09/29 03:23:23;;;;;;;;;;;7.30;1.00;;;;;;6154990;23;19968;-84
2022/09/29 03:25:50;;;;;;;;;;;7.30;1.00;;;;;;6155376;23;19916;-85
2022/09/29 03:28:18;;;;;;;;;;;7.30;1.00;;;;;;6155675;23;19913;-85
2022/09/29 03:30:45;;;;;;;;;;;7.30;1.00;;;;;;6155703;23;19921;-85
2022/09/29 03:33:12;;;;;;;;;;;7.30;1.00;;;;;;6154980;23;19912;-85
2022/09/29 03:35:38;;;;;;;;;;;7.30;1.00;;;;;;6151883;23;19924;-84
2022/09/29 03:38:05;;;;;;;;;;;7.30;1.00;;;;;;6154586;23;19912;-84
2022/09/29 03:40:32;;;;;;;;;;;7.30;1.00;;;;;;6154394;23;20355;-84
2022/09/29 03:42:59;;;;;;;;;;;7.30;1.00;;;;;;6154705;23;19968;-85
2022/09/29 03:45:27;;;;;;;;;;;7.30;1.00;;;;;;6154579;23;19917;-84
2022/09/29 03:47:53;;;;;;;;;;;7.30;1.00;;;;;;6154257;23;19913;-85
2022/09/29 03:50:20;;;;;;;;;;;7.30;1.00;;;;;;6154973;23;19959;-85
2022/09/29 03:52:47;;;;;;;;;;;7.30;1.00;;;;;;6154753;23;20284;-86
2022/09/29 03:55:14;;;;;;;;;;;7.20;1.00;;;;;;6154970;23;19913;-85
2022/09/29 03:57:41;;;;;;;;;;;7.30;56.50;;;;;;6155176;23;20320;-84
2022/09/29 04:00:08;;;;;;;;;;;7.20;99.90;;;;;;6154929;23;19913;-84
2022/09/29 04:02:36;;;;;;;;;;;7.30;1.00;;;;;;6155175;23;20371;-83
2022/09/29 04:05:03;;;;;;;;;;;7.30;1.40;;;;;;6155559;23;19917;-85
2022/09/29 04:07:31;;;;;;;;;;;7.30;83.10;;;;;;6155364;23;19916;-85
2022/09/29 04:09:57;;;;;;;;;;;7.30;74.60;;;;;;6155323;23;19923;-85
2022/09/29 04:12:24;;;;;;;;;;;7.30;1.00;;;;;;6155494;23;19960;-85
2022/09/29 04:14:51;;;;;;;;;;;7.40;1.00;;;;;;6155484;23;19913;-84
2022/09/29 04:17:18;;;;;;;;;;;7.40;1.00;;;;;;6155056;23;20379;-84
2022/09/29 04:19:46;;;;;;;;;;;7.40;99.90;;;;;;6155094;23;19960;-84
2022/09/29 04:22:14;;;;;;;;;;;7.40;99.90;;;;;;6154944;23;20375;-84
2022/09/29 04:24:41;;;;;;;;;;;7.40;99.90;;;;;;6153663;23;19912;-86
2022/09/29 04:27:08;;;;;;;;;;;7.40;99.90;;;;;;6155102;23;19913;-86
2022/09/29 04:29:35;;;;;;;;;;;7.50;1.00;;;;;;6155542;23;19964;-86
2022/09/29 04:32:01;;;;;;;;;;;7.50;1.00;;;;;;6155200;23;19967;-84
2022/09/29 04:34:28;;;;;;;;;;;7.50;1.00;;;;;;6154949;23;19912;-85
2022/09/29 04:36:56;;;;;;;;;;;7.60;1.00;;;;;;6154872;23;19920;-85
2022/09/29 04:39:23;;;;;;;;;;;7.60;1.00;;;;;;6155075;23;19913;-85
2022/09/29 04:41:50;;;;;;;;;;;7.60;99.90;;;;;;6154484;23;20352;-85
2022/09/29 04:44:19;;;;;;;;;;;7.60;99.90;;;;;;6154813;23;20312;-87
2022/09/29 04:46:45;;;;;;;;;;;7.70;99.90;;;;;;6155012;23;19912;-87
2022/09/29 04:49:12;;;;;;;;;;;7.70;99.90;;;;;;6156596;23;19912;-84
2022/09/29 04:51:39;;;;;;;;;;;7.70;99.90;;;;;;6156720;23;19916;-87
2022/09/29 04:54:07;;;;;;;;;;;7.70;99.90;;;;;;6156925;23;19913;-86
2022/09/29 04:56:34;;;;;;;;;;;7.70;99.90;;;;;;6157401;23;19912;-85
2022/09/29 04:59:01;;;;;;;;;;;7.70;99.90;;;;;;6156707;23;19960;-87
2022/09/29 05:01:28;;;;;;;;;;;7.80;99.90;;;;;;6156975;23;19920;-85
2022/09/29 05:03:55;;;;;;;;;;;7.80;99.90;;;;;;6156661;23;19960;-84
2022/09/29 05:06:22;;;;;;;;;;;7.80;99.90;;;;;;6156290;23;20383;-88
2022/09/29 05:08:49;;;;;;;;;;;7.80;1.00;;;;;;6156407;23;19917;-86
2022/09/29 05:11:17;;;;;;;;;;;7.90;1.00;;;;;;6157120;23;20022;-85
2022/09/29 05:13:47;;;;;;;;;;;7.80;1.00;;;;;;6156283;23;19976;-84
2022/09/29 05:16:13;;;;;;;;;;;7.90;1.00;;;;;;6155839;23;19913;-83
2022/09/29 05:18:40;;;;;;;;;;;7.90;1.00;;;;;;6155220;23;19964;-86
2022/09/29 05:21:07;;;;;;;;;;;8.00;1.00;;;;;;6155434;23;19916;-85
2022/09/29 05:23:34;;;;;;;;;;;8.00;1.00;;;;;;6156994;23;19917;-86
2022/09/29 05:26:02;;;;;;;;;;;8.00;1.00;;;;;;6154858;23;20267;-84
2022/09/29 05:28:30;;;;;;;;;;;8.10;1.00;;;;;;6155554;23;19917;-87
2022/09/29 05:31:00;;;;;;;;;;;8.10;99.90;;;;;;6156243;23;19913;-85
2022/09/29 05:33:27;;;;;;;;;;;8.10;99.90;;;;;;6156905;23;19916;-84
2022/09/29 05:35:54;;;;;;;;;;;8.10;99.90;;;;;;6156325;23;20312;-84
2022/09/29 05:38:21;;;;;;;;;;;8.10;99.90;;;;;;6156698;23;19928;-85
2022/09/29 05:40:48;;;;;;;;;;;8.20;99.90;;;;;;6156354;23;19912;-84
2022/09/29 05:43:15;;;;;;;;;;;8.20;99.90;;;;;;6156093;23;20268;-85
2022/09/29 05:45:43;;;;;;;;;;;8.20;99.90;;;;;;6156911;23;20014;-84
2022/09/29 05:48:10;;;;;;;;;;;8.20;99.90;;;;;;6156526;23;19920;-86
2022/09/29 05:50:40;;;;;;;;;;;8.20;1.00;;;;;;6157104;23;19912;-86
2022/09/29 05:53:07;;;;;;;;;;;8.20;1.00;;;;;;6156108;23;19912;-86
2022/09/29 05:55:34;;;;;;;;;;;8.30;99.90;;;;;;6156196;23;20221;-86
2022/09/29 05:58:01;;;;;;;;;;;8.30;1.00;;;;;;6156554;23;19916;-85
2022/09/29 06:00:30;;;;;;;;;;;8.30;1.00;;;;;;6156600;23;19913;-84
2022/09/29 06:02:59;;;;;;;;;;;8.40;77.40;;;;;;6156320;23;19912;-84
2022/09/29 06:05:26;;;;;;;;;;;8.40;1.00;;;;;;6156690;23;19919;-84
2022/09/29 06:07:53;;;;;;;;;;;8.50;8.00;;;;;;6155898;23;19969;-84
2022/09/29 06:10:20;;;;;;;;;;;8.50;99.90;;;;;;6155716;23;19916;-83
2022/09/29 06:12:47;;;;;;;;;;;8.70;1.00;;;;;;6156170;23;19912;-84
2022/09/29 06:15:14;;;;;;;;;;;8.80;1.00;;;;;;6156191;23;20295;-84
2022/09/29 06:17:40;;;;;;;;;;;8.80;1.00;;;;;;6156475;23;19920;-84
2022/09/29 06:20:09;;;;;;;;;;;8.90;1.00;;;;;;6156267;23;20209;-85
2022/09/29 06:22:36;;;;;;;;;;;8.90;99.90;;;;;;6157196;23;19983;-85
2022/09/29 06:25:03;;;;;;;;;;;8.90;99.90;;;;;;6156443;23;19939;-86
2022/09/29 06:27:30;;;;;;;;;;;8.90;99.90;;;;;;6156378;23;19913;-86
2022/09/29 06:29:57;;;;;;;;;;;8.90;99.90;;;;;;6156362;23;19913;-85
2022/09/29 06:32:24;;;;;;;;;;;8.80;99.90;;;;;;6155979;23;20266;-84
2022/09/29 06:37:38;;;;;;;;;;;8.80;99.90;;;;;;6156123;23;19934;-86
2022/09/29 06:40:07;;;;;;;;;;;8.90;1.00;;;;;;6156648;23;19920;-83
2022/09/29 06:42:33;;;;;;;;;;;8.90;99.90;;;;;;6156158;23;19991;-85
2022/09/29 06:45:00;;;;;;;;;;;8.90;1.00;;;;;;6156048;23;20351;-84
2022/09/29 06:47:27;;;;;;;;;;;8.80;99.90;;;;;;6156067;23;19967;-83
2022/09/29 06:49:54;;;;;;;;;;;8.80;1.00;;;;;;6156200;23;19912;-86
2022/09/29 06:52:21;;;;;;;;;;;8.70;99.90;;;;;;6156171;23;19916;-87
2022/09/29 06:54:49;;;;;;;;;;;8.70;1.00;;;;;;6155535;23;19912;-84
2022/09/29 06:57:16;;;;;;;;;;;8.70;99.90;;;;;;6156090;23;19912;-84
2022/09/29 06:59:42;;;;;;;;;;;8.70;99.90;;;;;;6156054;23;19913;-84
2022/09/29 07:02:09;;;;;;;;;;;8.60;1.00;;;;;;6155961;23;19913;-84
2022/09/29 07:04:36;;;;;;;;;;;8.70;1.00;;;;;;6155945;23;20252;-83
2022/09/29 07:07:03;;;;;;;;;;;8.60;1.00;;;;;;6155763;23;19917;-84
2022/09/29 07:09:30;;;;;;;;;;;8.70;1.00;;;;;;6155613;23;19968;-85
2022/09/29 07:11:58;;;;;;;;;;;8.60;1.00;;;;;;6156045;23;19916;-83
2022/09/29 07:14:25;;;;;;;;;;;8.70;1.00;;;;;;6155477;23;19917;-86
2022/09/29 07:16:52;;;;;;;;;;;8.70;96.70;;;;;;6155829;23;19916;-84
2022/09/29 07:19:19;;;;;;;;;;;8.70;99.90;;;;;;6155869;23;19916;-84
2022/09/29 07:21:45;;;;;;;;;;;8.80;1.00;;;;;;6155530;23;19912;-85
2022/09/29 07:24:12;;;;;;;;;;;8.90;1.00;;;;;;6155745;23;19912;-85
2022/09/29 07:26:39;;;;;;;;;;;8.90;1.00;;;;;;6155408;23;20387;-84
2022/09/29 07:29:08;;;;;;;;;;;9.00;1.00;;;;;;6155398;23;20277;-86
2022/09/29 07:31:34;;;;;;;;;;;9.00;1.00;;;;;;6155873;23;20236;-84
2022/09/29 07:34:01;;;;;;;;;;;9.10;1.00;;;;;;6155758;23;20229;-85
2022/09/29 07:36:28;;;;;;;;;;;9.10;1.00;;;;;;6155661;23;19984;-83
2022/09/29 07:38:55;;;;;;;;;;;9.10;1.00;;;;;;6155330;23;20375;-85
2022/09/29 07:41:22;;;;;;;;;;;9.20;1.00;;;;;;6155570;23;19920;-84
2022/09/29 07:43:49;;;;;;;;;;;9.30;1.00;;;;;;6155535;23;19912;-85
2022/09/29 07:46:17;;;;;;;;;;;9.30;1.00;;;;;;6155333;23;20320;-86
2022/09/29 07:48:44;;;;;;;;;;;9.30;99.90;;;;;;6155742;23;19976;-85
2022/09/29 07:51:12;;;;;;;;;;;9.30;99.90;;;;;;6155437;23;20283;-85
2022/09/29 07:53:39;;;;;;;;;;;9.40;99.90;;;;;;6155245;23;20287;-86
2022/09/29 07:56:06;;;;;;;;;;;9.50;1.00;;;;;;6155628;23;19913;-86
2022/09/29 07:58:34;;;;;;;;;;;9.70;1.00;;;;;;6155562;23;19913;-84
2022/09/29 08:01:02;;;;;;;;;;;9.80;1.00;;;;;;6155578;23;19916;-84
2022/09/29 08:03:30;;;;;;;;;;;9.90;1.00;;;;;;6155339;23;19919;-86
2022/09/29 08:05:58;;;;;;;;;;;10.10;99.90;;;;;;6155149;23;19964;-86
2022/09/29 08:08:24;;;;;;;;;;;10.20;1.00;;;;;;6155477;23;19950;-86
2022/09/29 08:10:51;;;;;;;;;;;10.30;99.90;;;;;;6154878;23;19960;-86
2022/09/29 08:13:18;;;;;;;;;;;10.30;99.90;;;;;;6155326;23;19916;-84
2022/09/29 08:15:45;;;;;;;;;;;10.40;1.00;;;;;;6155734;23;19960;-87
2022/09/29 08:18:11;;;;;;;;;;;10.40;1.00;;;;;;6155460;23;19975;-86
2022/09/29 08:20:40;;;;;;;;;;;10.50;1.00;;;;;;6155055;23;20268;-87
2022/09/29 08:23:06;;;;;;;;;;;10.60;1.00;;;;;;6155076;23;19912;-85
2022/09/29 08:25:34;;;;;;;;;;;10.70;99.90;;;;;;6154850;23;19912;-87
2022/09/29 08:28:01;;;;;;;;;;;10.90;99.90;;;;;;6155313;23;19947;-84
2022/09/29 08:30:27;;;;;;;;;;;11.00;1.00;;;;;;6155051;23;20268;-86
2022/09/29 08:32:54;;;;;;;;;;;11.20;1.00;;;;;;6155292;23;19959;-85
2022/09/29 08:35:21;;;;;;;;;;;11.30;1.00;;;;;;6155082;23;19916;-85
2022/09/29 08:37:49;;;;;;;;;;;11.40;1.00;;;;;;6155633;23;19941;-85
2022/09/29 08:40:16;;;;;;;;;;;11.50;1.00;;;;;;6155669;23;20287;-87
2022/09/29 08:42:48;;;;;;;;;;;11.50;1.00;;;;;;6154520;23;19972;-86
2022/09/29 08:45:20;;;;;;;;;;;11.50;1.00;;;;;;6155577;23;19912;-83
2022/09/29 08:47:48;;;;;;;;;;;11.60;1.00;;;;;;6155184;23;19917;-84
2022/09/29 08:50:17;;;;;;;;;;;11.60;1.00;;;;;;6155782;23;19912;-84
2022/09/29 08:52:44;;;;;;;;;;;11.70;1.00;;;;;;6155173;23;20324;-84
2022/09/29 08:55:22;;;;;;;;;;;11.70;1.00;;;;;;6154884;23;20316;-85
2022/09/29 08:57:50;;;;;;;;;;;11.70;1.00;;;;;;6155134;23;19991;-86
2022/09/29 09:00:18;;;;;;;;;;;11.60;99.90;;;;;;6155131;23;19916;-87
2022/09/29 09:03:04;;;;;;;;;;;11.60;99.90;;;;;;6154947;23;19912;-87
2022/09/29 09:05:40;;;;;;;;;;;11.70;1.00;;;;;;6154927;23;19912;-86
2022/09/29 09:08:12;;;;;;;;;;;11.80;99.90;;;;;;6155296;23;19912;-87
2022/09/29 09:10:43;;;;;;;;;;;11.90;99.90;;;;;;6155291;23;19991;-85
2022/09/29 09:13:25;;;;;;;;;;;12.10;99.90;;;;;;6154943;23;19917;-88
2022/09/29 09:16:02;;;;;;;;;;;12.30;1.00;;;;;;6155198;23;19913;-85
2022/09/29 09:18:49;;;;;;;;;;;12.30;99.90;;;;;;6154969;23;20320;-85
2022/09/29 09:21:18;;;;;;;;;;;12.40;99.90;;;;;;6155189;23;19935;-84
2022/09/29 09:23:53;;;;;;;;;;;12.40;99.90;;;;;;6155249;23;20279;-87
2022/09/29 09:26:24;;;;;;;;;;;12.70;99.90;;;;;;6155639;23;20232;-86
2022/09/29 09:28:53;;;;;;;;;;;13.00;99.90;;;;;;6155513;23;19912;-86
2022/09/29 09:31:22;;;;;;;;;;;13.20;99.90;;;;;;6155413;23;20228;-86
2022/09/29 09:33:51;;;;;;;;;;;13.50;99.90;;;;;;6156454;23;20213;-86
2022/09/29 09:36:19;;;;;;;;;;;13.70;99.90;;;;;;6157298;23;20276;-88
2022/09/29 09:38:48;;;;;;;;;;;13.80;99.90;;;;;;6156535;23;19912;-85
2022/09/29 09:41:16;;;;;;;;;;;13.80;99.90;;;;;;6156834;23;19912;-88
2022/09/29 09:43:46;;;;;;;;;;;13.70;99.90;;;;;;6156518;23;19979;-85
2022/09/29 09:46:16;;;;;;;;;;;13.60;99.90;;;;;;6156518;23;19917;-85
2022/09/29 09:48:44;;;;;;;;;;;13.70;99.90;;;;;;6156771;23;19916;-84
2022/09/29 09:51:32;;;;;;;;;;;13.80;96.70;;;;;;6156476;23;19968;-84
2022/09/29 09:54:01;;;;;;;;;;;13.80;90.10;;;;;;6156323;23;19913;-85
2022/09/29 09:56:35;;;;;;;;;;;14.00;99.90;;;;;;6156960;23;19912;-85
2022/09/29 09:59:11;;;;;;;;;;;14.10;99.90;;;;;;6156422;23;19976;-84
2022/09/29 10:01:38;;;;;;;;;;;14.20;24.50;;;;;;6156109;23;19912;-89
2022/09/29 10:04:05;;;;;;;;;;;14.30;2.00;;;;;;6155790;23;19912;-86
2022/09/29 10:06:32;;;;;;;;;;;14.30;25.30;;;;;;6156283;23;19967;-83
2022/09/29 10:08:59;;;;;;;;;;;14.10;1.00;;;;;;6156529;23;19916;-88
2022/09/29 10:11:27;;;;;;;;;;;14.00;3.00;;;;;;6156557;23;19960;-88
2022/09/29 10:13:58;;;;;;;;;;;13.90;1.00;;;;;;6156213;23;19920;-88
2022/09/29 10:16:28;;;;;;;;;;;13.90;1.00;;;;;;6156211;23;19916;-87
2022/09/29 10:18:55;;;;;;;;;;;13.80;1.00;;;;;;6156009;23;19912;-86
2022/09/29 10:21:37;;;;;;;16.75;13.77;;;13.80;1.00;;;;;;6155874;23;20021;-88
2022/09/29 10:24:06;;;;;;;;;;;13.80;1.00;;;;;;6156148;23;20163;-85
2022/09/29 10:26:37;;;;;;;36.05;19.20;;;13.80;1.00;;;;;;6154774;23;20390;-84
2022/09/29 10:29:16;;;;;;;;;;;13.80;1.00;;;;;;6156022;23;20237;-85
2022/09/29 10:31:59;;;;;;;21.98;15.20;;;13.90;1.00;;;;;;6130727;23;20708;-84
2022/09/29 10:34:26;;;;;;;;;;;14.00;1.00;;;;;;6156077;23;20581;-84
2022/09/29 10:36:54;;;;;;;;;;;14.00;1.00;;;;;;6156541;23;19968;-84
2022/09/29 10:39:40;;;;;;;23.05;15.75;;;14.10;1.00;;;;;;6155330;23;20694;-85
2022/09/29 10:42:16;;;;;;;;;;;14.20;1.00;;;;;;6156324;23;20233;-86
2022/09/29 10:44:53;;;;;;;20.30;14.80;;;14.30;1.00;;;;;;6155001;23;20371;-88
2022/09/29 10:47:22;;;;;;;;;;;14.30;1.00;;;;;;6155924;23;20209;-86
2022/09/29 10:50:09;;;;;;;19.42;14.43;;;14.30;1.00;;;;;;6155466;23;20409;-86
2022/09/29 10:52:36;;;;;;;;;;;14.40;1.00;;;;;;6156117;23;20150;-87
2022/09/29 10:55:05;;;;;;;19.42;14.45;;;14.40;1.00;;;;;;6154799;23;20378;-85
2022/09/29 10:57:33;;;;;;;;;;;14.40;1.00;;;;;;6156063;23;20166;-85
2022/09/29 11:00:00;;;;;;;;;;;14.50;1.00;;;;;;6155745;23;19991;-87
2022/09/29 11:02:30;;;;;;;;;;;14.50;1.00;;;;;;6155922;23;19959;-86
2022/09/29 11:04:59;;;;;;;;;;;14.60;1.00;;;;;;6156056;23;20351;-88
2022/09/29 11:07:26;;;;;;;;;;;14.70;1.00;;;;;;6156273;23;19968;-85
2022/09/29 11:09:53;;;;;;;;;;;14.70;1.00;;;;;;6156184;23;19912;-86
2022/09/29 11:12:26;;;;;;;;;;;14.70;1.00;;;;;;6155971;23;19919;-84
2022/09/29 11:14:53;;;;;;;;;;;14.90;1.00;;;;;;6155898;23;20316;-87
2022/09/29 11:17:22;;;;;;;;;;;15.00;1.00;;;;;;6155595;23;20383;-85
2022/09/29 11:19:50;;;;;;;;;;;15.10;1.00;;;;;;6155938;23;19913;-86
2022/09/29 11:22:48;;;;;;;15.85;13.30;;;15.10;1.00;;;;;;6155404;23;20383;-86
2022/09/29 11:25:21;;;;;;;;;;;15.10;1.00;;;;;;6155994;23;20158;-87
2022/09/29 11:27:57;;;;;;;;;;;15.20;1.00;;;;;;6155620;23;20220;-85
2022/09/29 11:30:25;;;;;;;;;;;15.30;1.00;;;;;;6155712;23;20312;-84
2022/09/29 11:33:09;;;;;;;;;;;15.50;1.00;;;;;;6155707;23;19912;-87
2022/09/29 11:35:42;;;;;;;;;;;15.50;1.00;;;;;;6155248;23;19916;-85
2022/09/29 11:38:29;;;;;;;;;;;15.60;1.00;;;;;;6155522;23;19912;-88
2022/09/29 11:41:02;;;;;;;;;;;15.70;1.00;;;;;;6150753;23;19934;-84
2022/09/29 11:43:34;;;;;;;;;;;15.60;1.00;;;;;;6155567;23;19912;-87
2022/09/29 11:46:06;;;;;;;;;;;15.40;1.00;;;;;;6155933;23;20156;-83
2022/09/29 11:48:53;;;;;;;;;;;15.40;1.00;;;;;;6155746;23;19919;-85
2022/09/29 11:51:24;;;;;;;;;;;15.30;1.00;;;;;;6150478;23;19917;-89
2022/09/29 11:54:00;;;;;;;;;;;15.20;1.00;;;;;;6155625;23;19916;-84
2022/09/29 11:56:30;;;;;;;;;;;15.20;1.00;;;;;;6155181;23;19960;-88
2022/09/29 11:59:05;;;;;;;;;;;15.30;1.00;;;;;;6156143;23;19921;-87
2022/09/29 12:01:40;;;;;;;;;;;15.20;1.00;;;;;;6155856;23;19916;-85
2022/09/29 12:04:15;;;;;;;;;;;15.20;1.00;;;;;;6155516;23;19918;-87
2022/09/29 12:06:52;;;;;;;;;;;15.20;1.00;;;;;;6155579;23;19959;-84
2022/09/29 12:09:29;;;;;;;;;;;15.20;1.00;;;;;;6154975;23;20272;-85
2022/09/29 12:12:00;;;;;;;;;;;15.30;1.00;;;;;;6155476;23;19916;-84
2022/09/29 12:14:29;;;;;;;;;;;15.40;1.00;;;;;;6155817;23;20284;-86
2022/09/29 12:16:58;;;;;;;;;;;15.50;1.00;;;;;;6155434;23;20378;-88
2022/09/29 12:19:27;;;;;;;;;;;15.60;1.00;;;;;;6155429;23;19917;-88
2022/09/29 12:21:57;;;;;;;;;;;15.70;1.00;;;;;;6155131;23;20312;-85
2022/09/29 12:24:28;;;;;;;;;;;15.90;1.00;;;;;;6154781;23;20331;-84
2022/09/29 12:26:56;;;;;;;;;;;15.90;1.00;;;;;;6155101;23;19980;-84
2022/09/29 12:29:29;;;;;;;;;;;16.00;1.00;;;;;;6155270;23;19916;-87
2022/09/29 12:31:58;;;;;;;;;;;16.10;1.00;;;;;;6154965;23;19920;-87
2022/09/29 12:34:28;;;;;;;;;;;16.10;1.00;;;;;;6154855;23;19931;-86
2022/09/29 12:37:01;;;;;;;;;;;16.20;1.00;;;;;;6155418;23;19946;-85
2022/09/29 12:39:34;;;;;;;;;;;16.20;1.00;;;;;;6155390;23;19919;-85
2022/09/29 12:42:07;;;;;;;;;;;16.20;1.00;;;;;;6155809;23;19968;-87
2022/09/29 12:44:40;;;;;;;;;;;16.00;1.00;;;;;;6155159;23;19912;-85
2022/09/29 12:47:12;;;;;;;;;;;15.90;1.00;;;;;;6155102;23;19976;-87
2022/09/29 12:49:43;;;;;;;;;;;15.80;1.00;;;;;;6155468;23;19912;-85
2022/09/29 12:52:15;;;;;;;;;;;15.90;1.00;;;;;;6154801;23;19960;-87
2022/09/29 12:54:46;;;;;;;;;;;15.90;1.00;;;;;;6155309;23;19912;-84
2022/09/29 12:57:14;;;;;;;;;;;16.00;1.00;;;;;;6155354;23;19968;-86
2022/09/29 12:59:44;;;;;;;;;;;16.00;1.00;;;;;;6155346;23;19912;-87
2022/09/29 13:02:20;;;;;;;;;;;16.00;1.00;;;;;;6155308;23;19913;-85
2022/09/29 13:04:53;;;;;;;;;;;16.00;1.00;;;;;;6154443;23;19968;-86
2022/09/29 13:07:50;;;;;;;;;;;16.00;1.00;;;;;;6155277;23;19912;-86
2022/09/29 13:10:36;;;;;;;;;;;15.90;1.00;;;;;;6157016;23;19916;-84
2022/09/29 13:13:26;;;;;;;;;;;15.90;1.00;;;;;;6157502;23;19916;-86
2022/09/29 13:15:58;;;;;;;;;;;15.80;1.00;;;;;;6156675;23;19913;-84
2022/09/29 13:18:57;;;;;;;21.23;15.20;;;15.70;1.00;;;;;;6154857;23;20429;-87
2022/09/29 13:21:26;;;;;;;;;;;15.60;1.00;;;;;;6157013;23;20146;-86
2022/09/29 13:24:06;;;;;;;;;;;15.60;1.00;;;;;;6157063;23;19973;-87
2022/09/29 13:26:50;;;;;;;;;;;15.50;1.00;;;;;;6157397;23;19913;-87
2022/09/29 13:29:20;;;;;;;;;;;15.50;1.00;;;;;;6156379;23;19912;-84
2022/09/29 13:31:47;;;;;;;;;;;15.40;1.00;;;;;;6156521;23;20316;-85
2022/09/29 13:34:19;;;;;;;;;;;15.40;1.00;;;;;;6156993;23;19913;-85
2022/09/29 13:36:47;;;;;;;;;;;15.40;1.00;;;;;;6156951;23;20292;-84
2022/09/29 13:39:20;;;;;;;;;;;15.30;1.00;;;;;;6156516;23;19912;-85
2022/09/29 13:41:47;;;;;;;;;;;15.30;1.00;;;;;;6156184;23;19963;-86
2022/09/29 13:44:23;;;;;;;;;;;15.30;1.00;;;;;;6155603;23;19976;-87
2022/09/29 13:46:51;;;;;;;;;;;15.30;1.00;;;;;;6155181;23;19912;-85
2022/09/29 13:49:27;;;;;;;;;;;15.30;1.00;;;;;;6155866;23;19920;-85
2022/09/29 13:51:54;;;;;;;;;;;15.20;1.00;;;;;;6155995;23;19965;-86
2022/09/29 13:54:28;;;;;;;;;;;15.20;1.00;;;;;;6156536;23;19913;-86
2022/09/29 13:57:18;;;;;;;;;;;15.10;1.00;;;;;;6155726;23;19967;-86
2022/09/29 13:59:47;;;;;;;;;;;15.00;1.00;;;;;;6155297;23;19919;-86
2022/09/29 14:02:19;;;;;;;;;;;15.00;1.00;;;;;;6156583;23;19913;-84
2022/09/29 14:04:50;;;;;;;;;;;14.90;1.00;;;;;;6155556;23;19921;-85
2022/09/29 14:07:32;;;;;;;;;;;14.90;1.00;;;;;;6156371;23;19912;-84
2022/09/29 14:10:04;;;;;;;;;;;14.90;1.00;;;;;;6156007;23;20205;-84
2022/09/29 14:12:34;;;;;;;;;;;14.80;1.00;;;;;;6155685;23;20316;-83
2022/09/29 14:15:03;;;;;;;;;;;14.70;1.00;;;;;;6155482;23;19916;-82
2022/09/29 14:17:31;;;;;;;;;;;14.70;1.00;;;;;;6153946;23;20275;-86
2022/09/29 14:20:03;;;;;;;;;;;14.60;1.00;;;;;;6155214;23;20278;-85
2022/09/29 14:22:48;;;;;;;;;;;14.60;1.00;;;;;;6156186;23;19912;-85
2022/09/29 14:25:24;;;;;;;;;;;14.60;1.00;;;;;;6155603;23;19916;-85
2022/09/29 14:28:00;;;;;;;;;;;14.50;1.00;;;;;;6156025;23;19913;-85
2022/09/29 14:30:39;;;;;;;;;;;14.50;1.00;;;;;;6155620;23;19979;-85
2022/09/29 14:33:11;;;;;;;;;;;14.50;1.00;;;;;;6156324;23;19952;-86
2022/09/29 14:35:38;;;;;;;;;;;14.40;1.00;;;;;;6154845;23;19919;-85
2022/09/29 14:38:08;;;;;;;;;;;14.50;1.00;;;;;;6155899;23;19977;-87
2022/09/29 14:40:35;;;;;;;;;;;14.50;1.00;;;;;;6156079;23;19967;-84
2022/09/29 14:43:13;;;;;;;;;;;14.40;1.00;;;;;;6155993;23;19912;-85
2022/09/29 14:51:58;;;;;;;;;;;14.40;1.00;;;;;;6155061;23;19919;-86
2022/09/29 14:54:28;;;;;;;;;;;14.30;1.00;;;;;;6154978;23;19912;-86
2022/09/29 14:57:01;;;;;;;;;;;14.30;1.00;;;;;;6151200;23;19912;-84